Time;durP1;ratioP1;P1;durP2;ratioP2;P2;SDS_P1;SDS_P2;PMS_P1;PMS_P2;Temp;Humidity;BMP_temperature;BMP_pressure;BME280_temperature;BME280_humidity;BME280_pressure;Samples;Min_cycle;Max_cycle;Signal;HPM_P1;HPM_P2
2023/03/21 00:01:06;;;;;;;312.90;47.27;;;8.20;99.90;;;;;;4849846;29;20068;-74
2023/03/21 00:03:33;;;;;;;216.20;42.50;;;8.20;99.90;;;;;;4849989;29;20288;-74
2023/03/21 00:06:04;;;;;;;274.38;44.13;;;8.20;99.90;;;;;;4847792;29;20036;-74
2023/03/21 00:08:30;;;;;;;173.98;39.20;;;8.20;99.90;;;;;;4879383;29;20135;-74
2023/03/21 00:11:01;;;;;;;259.03;46.47;;;8.20;99.90;;;;;;4863326;29;20127;-74
2023/03/21 00:13:31;;;;;;;159.25;36.58;;;8.20;99.90;;;;;;4860370;29;20052;-74
2023/03/21 00:16:05;;;;;;;171.88;38.80;;;8.20;99.90;;;;;;4844616;29;20111;-74
2023/03/21 00:18:31;;;;;;;141.50;35.75;;;8.20;99.90;;;;;;4860921;29;20099;-74
2023/03/21 00:21:02;;;;;;;141.48;35.92;;;8.20;99.90;;;;;;4878109;29;20484;-74
2023/03/21 00:23:29;;;;;;;142.30;35.15;;;8.20;99.90;;;;;;4861657;29;20048;-74
2023/03/21 00:25:56;;;;;;;150.60;37.60;;;8.20;99.90;;;;;;4843993;29;20413;-74
2023/03/21 00:28:23;;;;;;;194.70;38.53;;;8.20;99.90;;;;;;4861736;29;20565;-74
2023/03/21 00:30:49;;;;;;;177.90;39.08;;;8.20;99.90;;;;;;4863518;29;20439;-74
2023/03/21 00:33:15;;;;;;;160.30;37.03;;;8.20;99.90;;;;;;4846075;29;20045;-74
2023/03/21 00:35:43;;;;;;;154.00;36.73;;;8.20;99.90;;;;;;4879690;29;20052;-74
2023/03/21 00:38:09;;;;;;;151.68;36.58;;;8.20;99.90;;;;;;4849957;29;20321;-74
2023/03/21 00:40:36;;;;;;;175.85;37.90;;;8.20;99.90;;;;;;4862169;29;20512;-74
2023/03/21 00:43:01;;;;;;;154.52;36.63;;;8.20;99.90;;;;;;4850078;29;20040;-74
2023/03/21 00:45:27;;;;;;;134.67;34.53;;;8.20;99.90;;;;;;4850629;29;20047;-74
2023/03/21 00:47:53;;;;;;;141.77;36.10;;;8.20;99.90;;;;;;4863015;29;20051;-74
2023/03/21 00:50:19;;;;;;;136.47;33.33;;;8.30;99.90;;;;;;4848449;29;20135;-74
2023/03/21 00:52:45;;;;;;;140.40;37.27;;;8.20;99.90;;;;;;4864057;29;20131;-74
2023/03/21 00:55:16;;;;;;;124.43;34.07;;;8.20;99.90;;;;;;4850140;29;20066;-74
2023/03/21 00:57:44;;;;;;;107.60;32.85;;;8.20;99.90;;;;;;4875835;29;20045;-74
2023/03/21 01:00:12;;;;;;;110.28;31.00;;;8.20;99.90;;;;;;4857807;29;20040;-74
2023/03/21 01:02:41;;;;;;;112.35;30.67;;;8.30;99.90;;;;;;4865873;29;20453;-74
2023/03/21 01:05:09;;;;;;;94.95;28.88;;;8.30;99.90;;;;;;4862300;29;20108;-74
2023/03/21 01:07:35;;;;;;;85.47;28.33;;;8.30;99.90;;;;;;4843604;29;20037;-74
2023/03/21 01:10:00;;;;;;;79.73;28.40;;;8.30;99.90;;;;;;4843993;29;20060;-74
2023/03/21 01:12:27;;;;;;;81.73;26.67;;;8.30;99.90;;;;;;4828283;29;20105;-74
2023/03/21 01:14:53;;;;;;;79.43;27.55;;;8.30;99.90;;;;;;4842458;29;20037;-74
2023/03/21 01:17:18;;;;;;;72.27;26.80;;;8.30;99.90;;;;;;4862719;29;20511;-74
2023/03/21 01:19:44;;;;;;;64.40;24.27;;;8.30;99.90;;;;;;4843587;29;20045;-74
2023/03/21 01:22:10;;;;;;;68.67;25.23;;;8.30;99.90;;;;;;4842006;29;20508;-74
2023/03/21 01:24:36;;;;;;;64.43;23.40;;;8.30;99.90;;;;;;4857739;29;20279;-74
2023/03/21 01:27:02;;;;;;;71.33;24.43;;;8.30;99.90;;;;;;4844200;29;20380;-74
2023/03/21 01:29:28;;;;;;;59.50;23.20;;;8.30;99.90;;;;;;4840661;29;20048;-74
2023/03/21 01:31:54;;;;;;;56.40;22.40;;;8.30;99.90;;;;;;4858521;29;20545;-74
2023/03/21 01:34:20;;;;;;;50.58;20.98;;;8.30;99.90;;;;;;4830413;29;20044;-74
2023/03/21 01:36:46;;;;;;;58.67;22.23;;;8.30;99.90;;;;;;4846048;29;20064;-74
2023/03/21 01:39:12;;;;;;;54.70;22.27;;;8.30;99.90;;;;;;4859190;29;20323;-74
2023/03/21 01:41:40;;;;;;;52.40;21.00;;;8.30;99.90;;;;;;4862526;29;20112;-74
2023/03/21 01:44:06;;;;;;;49.03;20.65;;;8.30;99.90;;;;;;4878272;29;20040;-74
2023/03/21 01:46:41;;;;;;;47.95;21.98;;;8.30;99.90;;;;;;4867308;29;20188;-74
2023/03/21 01:49:25;;;;;;;39.13;19.35;;;8.30;99.90;;;;;;4878958;29;20064;-74
2023/03/21 01:51:56;;;;;;;40.70;19.67;;;8.30;99.90;;;;;;4871171;29;20170;-74
2023/03/21 01:54:30;;;;;;;38.72;17.88;;;8.30;99.90;;;;;;4858146;29;20119;-74
2023/03/21 01:57:00;;;;;;;34.67;17.15;;;8.30;99.90;;;;;;4858519;29;20124;-74
2023/03/21 01:59:39;;;;;;;34.95;16.48;;;8.30;99.90;;;;;;4858386;29;20127;-74
2023/03/21 02:02:10;;;;;;;28.98;15.20;;;8.30;99.90;;;;;;4878520;29;20067;-74
2023/03/21 02:04:37;;;;;;;25.85;14.38;;;8.30;99.90;;;;;;4877062;29;20041;-74
2023/03/21 02:07:08;;;;;;;28.17;14.60;;;8.30;99.90;;;;;;4857504;29;20119;-74
2023/03/21 02:09:39;;;;;;;27.08;13.40;;;8.30;99.90;;;;;;4857819;29;20091;-74
2023/03/21 02:12:07;;;;;;;24.25;13.32;;;8.30;99.90;;;;;;4857201;29;20335;-74
2023/03/21 02:14:35;;;;;;;28.25;14.05;;;8.30;99.90;;;;;;4845214;29;20047;-74
2023/03/21 02:17:25;;;;;;;25.10;13.45;;;8.30;99.90;;;;;;4854528;29;20049;-74
2023/03/21 02:20:00;;;;;;;25.02;13.63;;;8.30;99.90;;;;;;4860777;29;20053;-74
2023/03/21 02:22:47;;;;;;;25.75;13.88;;;8.30;99.90;;;;;;4879037;29;20096;-74
2023/03/21 02:25:34;;;;;;;27.48;14.10;;;8.30;99.90;;;;;;4861163;29;20130;-74
2023/03/21 02:28:40;;;;;;;27.05;14.15;;;8.30;99.90;;;;;;4862590;29;20044;-74
2023/03/21 02:31:21;;;;;;;27.48;13.23;;;8.30;99.90;;;;;;4829960;29;20510;-74
2023/03/21 02:34:30;;;;;;;24.63;13.43;;;8.30;99.90;;;;;;4852897;29;20051;-74
2023/03/21 02:37:08;;;;;;;30.48;13.82;;;8.30;99.90;;;;;;4877029;29;20120;-74
2023/03/21 02:40:09;;;;;;;31.45;13.70;;;8.30;99.90;;;;;;4862277;29;20049;-74
2023/03/21 02:42:59;;;;;;;33.05;13.85;;;8.30;99.90;;;;;;4823187;29;20049;-74
2023/03/21 02:45:58;;;;;;;35.13;14.18;;;8.30;99.90;;;;;;4862314;29;20095;-74
2023/03/21 02:48:32;;;;;;;39.13;14.75;;;8.30;99.90;;;;;;4865877;29;20064;-74
2023/03/21 02:51:01;;;;;;;46.08;16.45;;;8.30;99.90;;;;;;4859686;29;20045;-74
2023/03/21 02:53:32;;;;;;;54.58;17.45;;;8.30;99.90;;;;;;4862713;29;20458;-74
2023/03/21 02:55:59;;;;;;;43.47;16.70;;;8.30;99.90;;;;;;4862257;29;20052;-74
2023/03/21 02:58:28;;;;;;;46.25;16.80;;;8.30;99.90;;;;;;4842702;29;20057;-74
2023/03/21 03:00:55;;;;;;;47.22;17.27;;;8.30;99.90;;;;;;4863754;29;20052;-74
2023/03/21 03:03:22;;;;;;;42.90;16.30;;;8.30;99.90;;;;;;4847419;29;20543;-74
2023/03/21 03:05:52;;;;;;;43.92;16.67;;;8.30;99.90;;;;;;4862762;29;20413;-74
2023/03/21 03:08:48;;;;;;;44.30;17.27;;;8.30;99.90;;;;;;4862448;29;20124;-74
2023/03/21 03:11:28;;;;;;;51.20;18.10;;;8.30;99.90;;;;;;4863193;29;20485;-74
2023/03/21 03:14:25;;;;;;;47.30;16.60;;;8.30;99.90;;;;;;4891919;29;20048;-74
2023/03/21 03:17:21;;;;;;;42.83;15.80;;;8.30;99.90;;;;;;4851050;29;20053;-74
2023/03/21 03:19:52;;;;;;;47.00;16.38;;;8.30;99.90;;;;;;4855825;29;20584;-74
2023/03/21 03:22:26;;;;;;;41.38;15.80;;;8.30;99.90;;;;;;4857725;29;20456;-74
2023/03/21 03:25:01;;;;;;;39.83;15.98;;;8.30;99.90;;;;;;4858278;29;20049;-74
2023/03/21 03:27:38;;;;;;;43.33;15.82;;;8.30;99.90;;;;;;4867321;29;20152;-74
2023/03/21 03:30:08;;;;;;;51.58;17.17;;;8.30;99.90;;;;;;4857797;29;20176;-74
2023/03/21 03:32:43;;;;;;;56.53;18.50;;;8.30;99.90;;;;;;4860418;29;20058;-74
2023/03/21 03:35:12;;;;;;;46.72;16.83;;;8.30;99.90;;;;;;4859279;29;20048;-74
2023/03/21 03:37:40;;;;;;;54.50;17.75;;;8.30;99.90;;;;;;4872117;29;20481;-74
2023/03/21 03:40:15;;;;;;;56.50;18.48;;;8.30;99.90;;;;;;4860109;29;20164;-74
2023/03/21 03:42:59;;;;;;;66.15;20.08;;;8.30;99.90;;;;;;4857373;29;20036;-74
2023/03/21 03:45:32;;;;;;;58.25;18.38;;;8.30;99.90;;;;;;4855855;29;20040;-74
2023/03/21 03:48:24;;;;;;;51.03;17.17;;;8.30;99.90;;;;;;4858456;29;20052;-74
2023/03/21 03:51:05;;;;;;;49.35;17.88;;;8.30;99.90;;;;;;4858263;29;20112;-74
2023/03/21 03:53:43;;;;;;;54.97;16.77;;;8.30;99.90;;;;;;4863607;29;20048;-74
2023/03/21 03:56:11;;;;;;;58.60;18.83;;;8.30;99.90;;;;;;4860194;29;20730;-74
2023/03/21 03:58:41;;;;;;;59.28;18.55;;;8.30;99.90;;;;;;4855121;29;20524;-73
2023/03/21 04:01:07;;;;;;;53.10;17.90;;;8.30;99.90;;;;;;4850885;29;20056;-74
2023/03/21 04:03:36;;;;;;;79.53;19.77;;;8.30;99.90;;;;;;4847462;29;20040;-74
2023/03/21 04:06:02;;;;;;;76.30;19.75;;;8.30;99.90;;;;;;4877753;29;20108;-74
2023/03/21 04:08:29;;;;;;;64.15;18.30;;;8.30;99.90;;;;;;4858625;29;20089;-74
2023/03/21 04:10:55;;;;;;;64.95;20.00;;;8.30;99.90;;;;;;4845028;29;20049;-74
2023/03/21 04:13:21;;;;;;;70.95;19.40;;;8.30;99.90;;;;;;4836272;29;20045;-74
2023/03/21 04:15:46;;;;;;;64.13;18.30;;;8.30;99.90;;;;;;4847632;29;20512;-74
2023/03/21 04:18:12;;;;;;;73.53;19.87;;;8.30;99.90;;;;;;4870934;29;20341;-74
2023/03/21 04:20:38;;;;;;;85.63;20.37;;;8.30;99.90;;;;;;4845733;29;20044;-74
2023/03/21 04:23:05;;;;;;;69.85;19.75;;;8.30;99.90;;;;;;4844080;29;20047;-74
2023/03/21 04:25:34;;;;;;;54.80;18.00;;;8.30;99.90;;;;;;4858281;29;20041;-74
2023/03/21 04:28:00;;;;;;;62.05;18.77;;;8.30;99.90;;;;;;4869121;29;20124;-74
2023/03/21 04:30:26;;;;;;;62.60;18.77;;;8.30;99.90;;;;;;4841935;29;20590;-74
2023/03/21 04:32:55;;;;;;;53.53;17.67;;;8.30;99.90;;;;;;4869903;29;20290;-74
2023/03/21 04:35:23;;;;;;;55.65;17.23;;;8.20;99.90;;;;;;4840557;29;20037;-74
2023/03/21 04:37:49;;;;;;;47.15;16.27;;;8.30;99.90;;;;;;4859866;29;20124;-74
2023/03/21 04:40:17;;;;;;;39.33;15.50;;;8.30;99.90;;;;;;4839567;29;20045;-74
2023/03/21 04:42:44;;;;;;;42.33;15.60;;;8.20;99.90;;;;;;4846326;29;20041;-74
2023/03/21 04:45:10;;;;;;;36.55;14.82;;;8.30;99.90;;;;;;4861267;29;20053;-73
2023/03/21 04:47:36;;;;;;;37.33;15.35;;;8.30;99.90;;;;;;4874074;29;20041;-73
2023/03/21 04:50:02;;;;;;;36.57;15.80;;;8.30;99.90;;;;;;4856425;29;20410;-73
2023/03/21 04:52:28;;;;;;;38.80;15.23;;;8.30;99.90;;;;;;4850736;29;20136;-73
2023/03/21 04:54:54;;;;;;;34.87;15.27;;;8.30;99.90;;;;;;4858104;29;20132;-73
2023/03/21 04:57:20;;;;;;;36.90;15.23;;;8.30;99.90;;;;;;4855529;29;20049;-74
2023/03/21 04:59:45;;;;;;;41.80;16.87;;;8.30;99.90;;;;;;4848829;29;20060;-74
2023/03/21 05:02:12;;;;;;;39.63;17.00;;;8.30;99.90;;;;;;4839194;29;20498;-74
2023/03/21 05:04:38;;;;;;;40.90;17.25;;;8.30;99.90;;;;;;4857429;29;20063;-74
2023/03/21 05:07:04;;;;;;;48.42;18.58;;;8.30;99.90;;;;;;4875762;29;20037;-74
2023/03/21 05:09:30;;;;;;;47.97;18.60;;;8.30;99.90;;;;;;4856747;29;20413;-74
2023/03/21 05:11:56;;;;;;;45.57;18.47;;;8.30;99.90;;;;;;4857115;29;20262;-74
2023/03/21 05:14:24;;;;;;;51.13;19.07;;;8.30;99.90;;;;;;4840522;29;20047;-74
2023/03/21 05:16:54;;;;;;;44.83;18.95;;;8.30;99.90;;;;;;4853982;29;20083;-74
2023/03/21 05:19:22;;;;;;;46.03;18.40;;;8.30;99.90;;;;;;4880810;29;20041;-74
2023/03/21 05:21:48;;;;;;;44.75;18.92;;;8.30;99.90;;;;;;4874034;29;20053;-74
2023/03/21 05:24:18;;;;;;;49.28;18.95;;;8.30;99.90;;;;;;4861306;29;20084;-74
2023/03/21 05:26:51;;;;;;;49.40;19.17;;;8.30;99.90;;;;;;4854933;29;20042;-74
2023/03/21 05:29:18;;;;;;;47.53;17.88;;;8.30;99.90;;;;;;4858890;29;20493;-74
2023/03/21 05:31:44;;;;;;;46.30;19.13;;;8.30;99.90;;;;;;4858344;29;20124;-74
2023/03/21 05:34:11;;;;;;;50.10;18.42;;;8.30;99.90;;;;;;4836615;29;20054;-74
2023/03/21 05:36:37;;;;;;;45.80;18.10;;;8.30;99.90;;;;;;4859104;29;20068;-74
2023/03/21 05:39:04;;;;;;;44.15;17.60;;;8.30;99.90;;;;;;4842914;29;20065;-73
2023/03/21 05:41:29;;;;;;;37.85;16.60;;;8.30;99.90;;;;;;4849437;29;20041;-74
2023/03/21 05:43:55;;;;;;;50.33;18.30;;;8.30;99.90;;;;;;4876410;29;20041;-74
2023/03/21 05:46:21;;;;;;;43.30;17.47;;;8.30;99.90;;;;;;4855491;29;20107;-74
2023/03/21 05:48:47;;;;;;;41.47;17.90;;;8.30;99.90;;;;;;4840663;29;20046;-74
2023/03/21 05:51:13;;;;;;;46.67;17.87;;;8.40;99.90;;;;;;4842770;29;20048;-74
2023/03/21 05:53:39;;;;;;;46.53;18.80;;;8.30;99.90;;;;;;4852154;29;20135;-74
2023/03/21 05:56:05;;;;;;;45.77;18.13;;;8.40;99.90;;;;;;4857904;29;20119;-74
2023/03/21 05:58:30;;;;;;;47.55;19.30;;;8.40;99.90;;;;;;4852148;29;20053;-74
2023/03/21 06:00:56;;;;;;;46.93;19.00;;;8.40;99.90;;;;;;4841429;29;20450;-74
2023/03/21 06:03:22;;;;;;;46.63;18.60;;;8.40;99.90;;;;;;4856951;29;20049;-74
2023/03/21 06:05:48;;;;;;;47.40;19.17;;;8.40;99.90;;;;;;4853443;29;20056;-74
2023/03/21 06:08:14;;;;;;;46.80;19.60;;;8.30;99.90;;;;;;4855878;29;20619;-74
2023/03/21 06:10:40;;;;;;;46.47;20.17;;;8.40;99.90;;;;;;4859594;29;20060;-73
2023/03/21 06:13:05;;;;;;;49.23;19.83;;;8.40;99.90;;;;;;4859779;29;20049;-74
2023/03/21 06:15:31;;;;;;;51.47;20.07;;;8.40;99.90;;;;;;4845648;29;20300;-74
2023/03/21 06:17:57;;;;;;;48.83;20.37;;;8.40;99.90;;;;;;4859561;29;20044;-74
2023/03/21 06:20:23;;;;;;;48.10;21.03;;;8.40;99.90;;;;;;4856507;29;20342;-74
2023/03/21 06:22:48;;;;;;;49.90;20.80;;;8.40;99.90;;;;;;4841739;29;20044;-74
2023/03/21 06:25:14;;;;;;;44.33;20.43;;;8.40;99.90;;;;;;4836336;29;20064;-74
2023/03/21 06:27:40;;;;;;;48.37;20.80;;;8.40;99.90;;;;;;4836710;29;20054;-73
2023/03/21 06:30:07;;;;;;;50.20;20.30;;;8.40;99.90;;;;;;4844945;29;20077;-74
2023/03/21 06:32:33;;;;;;;43.53;20.33;;;8.40;99.90;;;;;;4848201;29;20049;-73
2023/03/21 06:34:58;;;;;;;41.77;19.20;;;8.40;99.90;;;;;;4844177;29;20154;-73
2023/03/21 06:37:25;;;;;;;47.83;20.23;;;8.40;99.90;;;;;;4873480;29;20045;-74
2023/03/21 06:39:51;;;;;;;38.35;18.95;;;8.40;99.90;;;;;;4861368;29;20113;-74
2023/03/21 06:42:17;;;;;;;44.15;19.88;;;8.50;99.90;;;;;;4858317;29;20394;-74
2023/03/21 06:44:43;;;;;;;35.73;18.73;;;8.50;99.90;;;;;;4853619;29;20046;-74
2023/03/21 06:47:09;;;;;;;41.67;18.47;;;8.50;99.90;;;;;;4869376;29;20100;-74
2023/03/21 06:49:35;;;;;;;43.73;20.47;;;8.50;99.90;;;;;;4854267;29;20053;-74
2023/03/21 06:52:00;;;;;;;42.22;20.33;;;8.50;99.90;;;;;;4873970;29;20045;-74
2023/03/21 06:54:26;;;;;;;43.33;20.67;;;8.50;99.90;;;;;;4850839;29;20086;-74
2023/03/21 06:56:53;;;;;;;45.93;21.50;;;8.50;99.90;;;;;;4836278;29;20056;-74
2023/03/21 06:59:18;;;;;;;44.00;22.00;;;8.50;99.90;;;;;;4852876;29;20498;-74
2023/03/21 07:01:44;;;;;;;47.87;21.53;;;8.50;99.90;;;;;;4841465;29;20047;-74
2023/03/21 07:04:10;;;;;;;44.03;20.13;;;8.50;99.90;;;;;;4857376;29;20180;-74
2023/03/21 07:06:37;;;;;;;37.40;19.17;;;8.50;99.90;;;;;;4841610;29;20049;-74
2023/03/21 07:09:04;;;;;;;34.88;19.23;;;8.50;99.90;;;;;;4861060;29;20052;-74
2023/03/21 07:11:31;;;;;;;36.85;19.65;;;8.50;99.90;;;;;;4859906;29;20116;-74
2023/03/21 07:13:56;;;;;;;38.50;20.05;;;8.50;99.90;;;;;;4872774;29;20077;-74
2023/03/21 07:16:23;;;;;;;33.07;17.80;;;8.50;99.90;;;;;;4842105;29;20045;-74
2023/03/21 07:18:50;;;;;;;35.83;17.33;;;8.50;99.90;;;;;;4853227;29;20413;-74
2023/03/21 07:21:16;;;;;;;31.07;16.63;;;8.60;99.90;;;;;;4871251;29;20303;-74
2023/03/21 07:23:42;;;;;;;33.03;17.20;;;8.60;99.90;;;;;;4839088;29;20292;-74
2023/03/21 07:26:08;;;;;;;38.13;18.30;;;8.60;99.90;;;;;;4838598;29;20038;-74
2023/03/21 07:28:34;;;;;;;28.95;17.02;;;8.60;99.90;;;;;;4857863;29;20057;-74
2023/03/21 07:31:03;;;;;;;27.47;15.60;;;8.60;99.90;;;;;;4838707;29;20045;-74
2023/03/21 07:33:30;;;;;;;25.98;14.80;;;8.60;99.90;;;;;;4871852;29;20109;-74
2023/03/21 07:35:59;;;;;;;27.55;14.55;;;8.60;99.90;;;;;;4873486;29;20706;-74
2023/03/21 07:38:25;;;;;;;26.03;14.70;;;8.60;99.90;;;;;;4844233;29;20052;-74
2023/03/21 07:40:51;;;;;;;26.48;15.05;;;8.60;99.90;;;;;;4877601;29;20289;-74
2023/03/21 07:43:18;;;;;;;30.23;16.47;;;8.60;99.90;;;;;;4864919;29;20043;-74
2023/03/21 07:45:44;;;;;;;34.17;17.37;;;8.70;99.90;;;;;;4846064;29;20294;-74
2023/03/21 07:48:16;;;;;;;35.72;19.10;;;8.60;99.90;;;;;;4847472;29;20305;-74
2023/03/21 07:50:42;;;;;;;36.47;19.25;;;8.60;99.90;;;;;;4858199;29;20052;-74
2023/03/21 07:53:07;;;;;;;34.63;19.90;;;8.60;99.90;;;;;;4878966;29;20508;-74
2023/03/21 07:55:33;;;;;;;35.57;19.30;;;8.60;99.90;;;;;;4873551;29;20528;-74
2023/03/21 07:58:03;;;;;;;32.17;19.27;;;8.60;99.90;;;;;;4846010;29;20069;-74
2023/03/21 08:00:30;;;;;;;30.83;18.45;;;8.60;99.90;;;;;;4877366;29;20041;-74
2023/03/21 08:02:57;;;;;;;31.40;18.17;;;8.60;99.90;;;;;;4853766;29;20041;-74
2023/03/21 08:05:33;;;;;;;32.42;19.45;;;8.60;99.90;;;;;;4849575;29;20132;-74
2023/03/21 08:07:59;;;;;;;33.37;19.63;;;8.60;99.90;;;;;;4880227;29;20184;-74
2023/03/21 08:10:26;;;;;;;33.20;20.40;;;8.60;99.90;;;;;;4856962;29;20372;-75
2023/03/21 08:12:51;;;;;;;35.43;20.07;;;8.60;99.90;;;;;;4867673;29;20367;-75
2023/03/21 08:15:17;;;;;;;31.13;18.77;;;8.60;99.90;;;;;;4883393;29;20380;-75
2023/03/21 08:17:46;;;;;;;36.50;19.67;;;8.70;99.90;;;;;;4867077;29;20299;-75
2023/03/21 08:20:14;;;;;;;37.60;20.03;;;8.70;99.90;;;;;;4868145;29;20481;-75
2023/03/21 08:22:41;;;;;;;31.75;19.05;;;8.70;99.90;;;;;;4884177;29;20289;-75
2023/03/21 08:25:07;;;;;;;32.97;21.55;;;8.80;99.90;;;;;;4869810;29;20092;-76
2023/03/21 08:27:34;;;;;;;34.00;19.50;;;8.80;99.90;;;;;;4848853;29;20055;-75
2023/03/21 08:30:00;;;;;;;35.63;21.48;;;8.90;99.90;;;;;;4861591;29;20076;-74
2023/03/21 08:32:30;;;;;;;40.88;23.25;;;8.90;99.90;;;;;;4848291;29;20053;-75
2023/03/21 08:35:00;;;;;;;42.30;23.52;;;8.90;99.90;;;;;;4866157;29;20235;-75
2023/03/21 08:37:27;;;;;;;32.28;19.65;;;9.00;99.90;;;;;;4882530;29;20501;-75
2023/03/21 08:39:53;;;;;;;38.27;20.83;;;9.00;99.90;;;;;;4882827;29;20505;-75
2023/03/21 08:42:21;;;;;;;34.27;19.97;;;9.00;99.90;;;;;;4863820;29;20292;-75
2023/03/21 08:44:48;;;;;;;33.30;17.73;;;9.00;99.90;;;;;;4880084;29;20312;-75
2023/03/21 08:47:14;;;;;;;31.70;17.30;;;9.00;99.90;;;;;;4882119;29;21089;-76
2023/03/21 08:49:41;;;;;;;35.23;18.20;;;9.10;99.90;;;;;;4869998;29;20292;-75
2023/03/21 08:52:07;;;;;;;32.60;16.83;;;9.10;99.90;;;;;;4879596;29;20377;-75
2023/03/21 08:54:33;;;;;;;30.50;15.57;;;9.10;99.90;;;;;;4881920;29;20375;-74
2023/03/21 08:56:59;;;;;;;28.47;15.27;;;9.10;99.90;;;;;;4877606;29;20284;-75
2023/03/21 08:59:24;;;;;;;28.97;15.07;;;9.20;99.90;;;;;;4863492;29;20316;-75
2023/03/21 09:01:51;;;;;;;32.90;15.50;;;9.20;99.90;;;;;;4846760;29;20289;-75
2023/03/21 09:04:17;;;;;;;29.90;16.37;;;9.30;99.90;;;;;;4856386;29;20586;-75
2023/03/21 09:06:47;;;;;;;29.23;16.03;;;9.30;99.90;;;;;;4849359;29;20289;-75
2023/03/21 09:09:14;;;;;;;26.30;15.43;;;9.40;99.90;;;;;;4851421;29;20293;-75
2023/03/21 09:11:40;;;;;;;28.63;16.20;;;9.50;99.90;;;;;;4861460;29;20294;-75
2023/03/21 09:14:06;;;;;;;29.70;15.37;;;9.60;99.90;;;;;;4866378;29;20303;-75
2023/03/21 09:16:32;;;;;;;27.67;15.60;;;9.70;99.90;;;;;;4864741;29;20052;-75
2023/03/21 09:18:58;;;;;;;25.37;16.57;;;9.70;99.90;;;;;;4847201;29;20305;-75
2023/03/21 09:21:26;;;;;;;31.33;16.43;;;9.70;99.90;;;;;;4892730;29;20501;-75
2023/03/21 09:23:55;;;;;;;29.10;16.37;;;9.70;99.90;;;;;;4868509;29;20289;-75
2023/03/21 09:26:22;;;;;;;35.33;18.03;;;9.70;99.90;;;;;;4863345;29;20373;-75
2023/03/21 09:28:49;;;;;;;29.23;17.20;;;9.70;99.90;;;;;;4862907;29;20356;-74
2023/03/21 09:31:21;;;;;;;27.33;16.97;;;9.70;99.90;;;;;;4863113;29;20289;-74
2023/03/21 09:33:52;;;;;;;27.33;15.93;;;9.70;99.90;;;;;;4855003;29;20285;-74
2023/03/21 09:36:19;;;;;;;28.80;14.60;;;9.60;99.90;;;;;;4861244;29;20317;-74
2023/03/21 09:38:47;;;;;;;28.57;15.53;;;9.50;99.90;;;;;;4843757;29;20617;-74
2023/03/21 09:41:26;;;;;;;24.87;15.60;;;9.50;99.90;;;;;;4857253;29;20717;-74
2023/03/21 09:44:23;;;;;;;27.80;14.33;;;9.50;99.90;;;;;;4862666;29;20328;-74
2023/03/21 09:47:12;;;;;;;25.30;14.87;;;9.50;99.90;;;;;;4876992;29;20323;-74
2023/03/21 09:49:46;;;;;;;25.67;14.43;;;9.50;99.90;;;;;;4876096;29;20907;-75
2023/03/21 09:52:31;;;;;;;25.63;13.97;;;9.60;99.90;;;;;;4862471;29;20292;-75
2023/03/21 09:54:57;;;;;;;28.17;14.13;;;9.70;99.90;;;;;;4852297;29;20410;-75
2023/03/21 09:57:40;;;;;;;25.97;13.10;;;9.70;99.90;;;;;;4856822;29;20561;-75
2023/03/21 10:00:21;;;;;;;30.20;14.93;;;9.80;99.90;;;;;;4872548;29;20705;-75
2023/03/21 10:02:50;;;;;;;26.20;14.67;;;9.90;99.90;;;;;;4877009;29;20279;-75
2023/03/21 10:05:23;;;;;;;26.10;14.70;;;10.00;99.90;;;;;;4876829;29;20777;-75
2023/03/21 10:08:04;;;;;;;27.77;15.77;;;10.10;99.90;;;;;;4864587;29;20349;-75
2023/03/21 10:10:37;;;;;;;28.50;14.30;;;10.20;99.90;;;;;;4860773;29;20284;-75
2023/03/21 10:13:09;;;;;;;30.73;15.63;;;10.30;99.90;;;;;;4871361;29;20300;-75
2023/03/21 10:15:35;;;;;;;27.10;15.07;;;10.30;99.90;;;;;;4884783;29;20332;-75
2023/03/21 10:18:04;;;;;;;25.80;15.07;;;10.40;99.90;;;;;;4863991;29;20351;-75
2023/03/21 10:20:35;;;;;;;27.17;14.70;;;10.60;99.90;;;;;;4860878;29;20064;-75
2023/03/21 10:23:07;;;;;;;19.60;13.27;;;10.70;99.90;;;;;;4856676;29;20314;-75
2023/03/21 10:25:39;;;;;;;20.83;12.90;;;10.90;99.90;;;;;;4858022;29;20289;-75
2023/03/21 10:28:06;;;;;;;21.40;12.67;;;11.10;99.90;;;;;;4841880;29;20289;-75
2023/03/21 10:30:54;;;;;;;19.37;11.63;;;11.10;99.90;;;;;;4858016;29;20285;-74
2023/03/21 10:33:24;;;;;;;19.03;11.77;;;11.20;99.90;;;;;;4859756;29;20297;-75
2023/03/21 10:35:58;;;;;;;17.33;10.37;;;11.30;99.90;;;;;;4867351;29;20294;-75
2023/03/21 10:38:25;;;;;;;25.20;11.13;;;11.40;99.90;;;;;;4861852;29;20301;-75
2023/03/21 10:40:52;;;;;;;15.83;10.10;;;11.40;99.90;;;;;;4876274;29;20439;-75
2023/03/21 10:43:26;;;;;;;19.50;9.80;;;11.50;99.90;;;;;;4861277;29;20296;-75
2023/03/21 10:45:54;;;;;;;20.65;10.18;;;11.50;99.90;;;;;;4876507;29;20352;-75
2023/03/21 10:48:20;;;;;;;19.03;9.53;;;11.40;99.90;;;;;;4878291;29;20052;-75
2023/03/21 10:50:52;;;;;;;18.33;9.73;;;11.40;99.90;;;;;;4861510;29;20610;-75
2023/03/21 10:53:22;;;;;;;16.97;8.87;;;11.40;99.90;;;;;;4875464;29;20295;-75
2023/03/21 10:55:52;;;;;;;16.67;9.87;;;11.50;99.90;;;;;;4857044;29;20295;-75
2023/03/21 10:58:26;;;;;;;17.53;9.30;;;11.60;99.90;;;;;;4872649;29;20336;-75
2023/03/21 11:01:04;;;;;;;15.23;8.93;;;11.60;99.90;;;;;;4863902;29;20649;-75
2023/03/21 11:03:31;;;;;;;17.53;9.10;;;11.70;99.90;;;;;;4873472;29;20314;-75
2023/03/21 11:06:13;;;;;;;18.27;9.60;;;11.80;99.90;;;;;;4875963;29;20315;-75
2023/03/21 11:08:49;;;;;;;16.70;8.37;;;11.90;99.90;;;;;;4857285;29;20690;-75
2023/03/21 11:11:28;;;;;;;17.77;9.17;;;11.90;99.90;;;;;;4858058;29;20348;-75
2023/03/21 11:14:06;;;;;;;17.63;9.03;;;11.90;99.90;;;;;;4860274;29;20300;-75
2023/03/21 11:16:40;;;;;;;17.33;9.03;;;11.90;99.90;;;;;;4872133;29;20293;-75
2023/03/21 11:19:15;;;;;;;14.32;9.02;;;11.90;99.90;;;;;;4875707;29;20355;-75
2023/03/21 11:21:41;;;;;;;;;;;11.90;99.90;;;;;;4873927;29;20081;-75
2023/03/21 11:24:15;;;;;;;16.87;8.87;;;12.00;99.90;;;;;;4860570;29;19966;-75
2023/03/21 11:26:47;;;;;;;15.20;8.67;;;12.00;99.90;;;;;;4861378;29;20777;-75
2023/03/21 11:29:28;;;;;;;19.57;8.83;;;12.00;99.90;;;;;;4863105;29;20324;-74
2023/03/21 11:32:10;;;;;;;18.83;8.87;;;12.00;99.90;;;;;;4861996;29;20295;-75
2023/03/21 11:34:47;;;;;;;16.40;8.30;;;11.80;99.90;;;;;;4860792;29;20970;-74
2023/03/21 11:37:25;;;;;;;19.00;8.73;;;11.90;99.90;;;;;;4863388;29;20304;-75
2023/03/21 11:39:56;;;;;;;17.33;8.43;;;11.80;99.90;;;;;;4878624;29;21182;-75
2023/03/21 11:42:30;;;;;;;13.63;8.40;;;11.90;99.90;;;;;;4877729;29;20304;-75
2023/03/21 11:45:19;;;;;;;17.75;8.90;;;11.90;99.90;;;;;;4885182;29;20320;-75
2023/03/21 11:47:48;;;;;;;19.07;9.50;;;11.80;99.90;;;;;;4874559;29;20578;-74
2023/03/21 11:50:18;;;;;;;18.63;9.70;;;11.80;99.90;;;;;;4863847;29;20291;-74
2023/03/21 11:53:25;;;;;;;15.40;9.00;;;11.70;99.90;;;;;;4864580;29;20344;-75
2023/03/21 11:56:12;;;;;;;16.10;8.50;;;11.60;99.90;;;;;;4849250;29;20297;-75
2023/03/21 11:58:49;;;;;;;15.43;8.13;;;11.50;99.90;;;;;;4869672;29;20864;-75
2023/03/21 12:01:52;;;;;;;16.50;8.97;;;11.60;99.90;;;;;;4876931;29;20280;-75
2023/03/21 12:04:43;;;;;;;16.33;8.30;;;11.50;99.90;;;;;;4806178;29;20878;-75
2023/03/21 12:07:23;;;;;;;14.93;8.50;;;11.40;99.90;;;;;;4861178;29;20301;-75
2023/03/21 12:10:28;;;;;;;14.77;8.40;;;11.50;99.90;;;;;;4878080;29;20289;-75
2023/03/21 12:13:06;;;;;;;17.13;9.00;;;11.60;99.90;;;;;;4858088;29;20687;-75
2023/03/21 12:15:37;;;;;;;15.13;8.97;;;11.70;99.90;;;;;;4875180;29;20308;-75
2023/03/21 12:18:03;;;;;;;13.73;8.90;;;11.90;99.90;;;;;;4875170;29;20300;-75
2023/03/21 12:20:44;;;;;;;14.63;9.73;;;11.90;99.90;;;;;;4861278;29;20289;-75
2023/03/21 12:23:22;;;;;;;17.00;9.97;;;12.00;99.90;;;;;;4875340;29;20123;-75
2023/03/21 12:25:53;;;;;;;18.03;10.60;;;12.20;99.90;;;;;;4854139;29;20293;-75
2023/03/21 12:28:25;;;;;;;17.77;10.07;;;12.30;99.90;;;;;;4867988;29;20433;-74
2023/03/21 12:31:06;;;;;;;14.87;10.20;;;12.40;99.90;;;;;;4860188;29;20288;-74
2023/03/21 12:33:50;;;;;;;17.67;10.40;;;12.50;99.90;;;;;;4856651;29;21201;-75
2023/03/21 12:36:35;;;;;;;20.60;11.03;;;12.60;99.90;;;;;;4876410;29;20299;-74
2023/03/21 12:39:20;;;;;;;19.33;10.95;;;12.60;99.90;;;;;;4847770;29;21074;-74
2023/03/21 12:42:13;;;;;;;19.60;11.43;;;12.70;99.90;;;;;;4865614;29;20048;-74
2023/03/21 12:45:03;;;;;;;16.90;11.07;;;12.60;99.90;;;;;;4864022;29;20337;-75
2023/03/21 12:47:33;;;;;;;19.67;10.63;;;12.60;99.90;;;;;;4864062;29;20288;-75
2023/03/21 12:50:14;;;;;;;16.87;10.80;;;12.50;99.90;;;;;;4860819;29;20285;-75
2023/03/21 12:52:43;;;;;;;19.50;11.63;;;12.50;99.90;;;;;;4853680;29;20288;-75
2023/03/21 12:55:30;;;;;;;17.60;10.93;;;12.50;99.90;;;;;;4863542;29;20293;-75